Riverton Regional Airport
KRIW : now visible

Airfield :











YOU CAN JOIN US ON...

 
LOGIN :

Register | Disclaimer

   EN    FR    IT 

 









Legend :    VFR   Marginal VFR   IFR   Intensive IFR   Very Intensive IFR
Visi :
Ceiling :
>= 8 km
>= 3000ft
5 to 8 km
1000 to 3000 ft
1500m to 5 km
500 to 1000 ft
800 to 1500m
200 to 500 ft
< 800m
< 200 ft
Symbols :   Thunderstorms  Fog  Heavy snow  Heavy precipitations  Wind > 20 kt






- Airport Elevation : 5525 ft


KRIW - Riverton Regional

CURRENT METAR :
  • 272053Z AUTO 05008KT 3SM -SN BR BKN032 OVC041 M04/M06 A2975 RMK AO2 SLP114 P0000 60001 T10391061 53009 $

EXPIRED METARs :
  • 272026Z AUTO 01008KT 3SM -SN BKN020 BKN027 OVC033 M03/M07 A2974 RMK AO2 P0000 T10331072 $
  • 272003Z AUTO 34010KT 1 1/2SM -SN BKN018 BKN025 OVC031 M03/M08 A2974 RMK AO2 P0000 T10331078 $
  • 271953Z AUTO 32012KT 2SM -SN BKN018 BKN027 OVC031 M03/M07 A2973 RMK AO2 VIS 1 3/4V3 SLP107 P0001 T10331072 $
  • 271927Z AUTO 34009KT 1 1/4SM -SN BKN022 OVC031 M04/M07 A2973 RMK AO2 P0000 T10391072 $
  • 271920Z AUTO 35011KT 2SM -SN BKN024 OVC031 M04/M08 A2973 RMK AO2 P0000 T10391078 $
  • 271910Z AUTO 34009KT 3SM -SN BKN024 OVC031 M04/M07 A2973 RMK AO2 P0000 T10391072 $

TAF KRIW
Valid from the 27 at 18:00 until the 28 at 18:00 UTC


271727Z 2718/2818 28012KT P6SM VCSH OVC035
TEMPO 2718/2722 1SM -SN OVC015
FM272200 34016G24KT P6SM VCSH SCT024 BKN040
FM280400 30007KT P6SM SCT040 BKN060
KZLC FIR / North America



MET'MAP, your aeronautical weather chart ! - Copyright ORBIFLY December 2007 - Disclaimer

ORBIFLY MET'MAP TEAM :

Programming & Development : Alexandra Zaïnal
Concept & original design : Baudouin d'Aumeries
Assistance for programming : Marc-Olivier Méhu
Technical & hardware support : Manuel Goepfert

Contact : metmap@orbifly.com




SOURCES & CREDITS :

   NOAA       Earth
Advisory